sensor_id;sensor_type;location;lat;lon;timestamp;P1;durP1;ratioP1;P2;durP2;ratioP2
39890;SDS011;25564;53.312;9.790;2023-11-21T00:01:54;9.17;;;3.30;;
39890;SDS011;25564;53.312;9.790;2023-11-21T00:04:26;9.57;;;3.87;;
39890;SDS011;25564;53.312;9.790;2023-11-21T00:06:59;9.93;;;4.13;;
39890;SDS011;25564;53.312;9.790;2023-11-21T00:09:30;12.90;;;5.10;;
39890;SDS011;25564;53.312;9.790;2023-11-21T00:12:02;7.70;;;3.97;;
39890;SDS011;25564;53.312;9.790;2023-11-21T00:14:34;10.00;;;4.13;;
39890;SDS011;25564;53.312;9.790;2023-11-21T00:17:05;8.57;;;4.47;;
39890;SDS011;25564;53.312;9.790;2023-11-21T00:19:37;10.23;;;4.33;;
39890;SDS011;25564;53.312;9.790;2023-11-21T00:22:09;9.53;;;4.13;;
39890;SDS011;25564;53.312;9.790;2023-11-21T00:24:40;14.20;;;4.83;;
39890;SDS011;25564;53.312;9.790;2023-11-21T00:27:12;10.80;;;5.00;;
39890;SDS011;25564;53.312;9.790;2023-11-21T00:29:43;10.57;;;4.80;;
39890;SDS011;25564;53.312;9.790;2023-11-21T00:32:14;10.67;;;5.37;;
39890;SDS011;25564;53.312;9.790;2023-11-21T00:34:46;9.73;;;4.93;;
39890;SDS011;25564;53.312;9.790;2023-11-21T00:37:17;8.07;;;4.27;;
39890;SDS011;25564;53.312;9.790;2023-11-21T00:39:49;8.77;;;3.77;;
39890;SDS011;25564;53.312;9.790;2023-11-21T00:42:20;9.03;;;3.80;;
39890;SDS011;25564;53.312;9.790;2023-11-21T00:44:52;6.40;;;3.43;;
39890;SDS011;25564;53.312;9.790;2023-11-21T00:47:24;8.27;;;4.20;;
39890;SDS011;25564;53.312;9.790;2023-11-21T00:49:55;7.30;;;3.80;;
39890;SDS011;25564;53.312;9.790;2023-11-21T00:52:28;7.80;;;2.93;;
39890;SDS011;25564;53.312;9.790;2023-11-21T00:54:59;5.33;;;2.80;;
39890;SDS011;25564;53.312;9.790;2023-11-21T00:57:31;5.07;;;2.77;;
39890;SDS011;25564;53.312;9.790;2023-11-21T01:00:02;5.17;;;3.10;;
39890;SDS011;25564;53.312;9.790;2023-11-21T01:05:10;5.70;;;3.37;;
39890;SDS011;25564;53.312;9.790;2023-11-21T01:07:41;6.43;;;3.03;;
39890;SDS011;25564;53.312;9.790;2023-11-21T01:10:13;5.23;;;2.53;;
39890;SDS011;25564;53.312;9.790;2023-11-21T01:12:45;9.27;;;3.10;;
39890;SDS011;25564;53.312;9.790;2023-11-21T01:15:17;8.70;;;3.07;;
39890;SDS011;25564;53.312;9.790;2023-11-21T01:17:48;11.13;;;3.83;;
39890;SDS011;25564;53.312;9.790;2023-11-21T01:20:19;12.90;;;4.20;;
39890;SDS011;25564;53.312;9.790;2023-11-21T01:22:51;12.30;;;4.23;;
39890;SDS011;25564;53.312;9.790;2023-11-21T01:25:22;15.37;;;5.00;;
39890;SDS011;25564;53.312;9.790;2023-11-21T01:27:54;13.47;;;5.20;;
39890;SDS011;25564;53.312;9.790;2023-11-21T01:30:27;15.00;;;4.73;;
39890;SDS011;25564;53.312;9.790;2023-11-21T01:32:58;15.83;;;5.23;;
39890;SDS011;25564;53.312;9.790;2023-11-21T01:35:30;14.63;;;5.13;;
39890;SDS011;25564;53.312;9.790;2023-11-21T01:38:01;15.97;;;5.60;;
39890;SDS011;25564;53.312;9.790;2023-11-21T01:40:32;14.37;;;5.00;;
39890;SDS011;25564;53.312;9.790;2023-11-21T01:43:04;15.00;;;6.20;;
39890;SDS011;25564;53.312;9.790;2023-11-21T01:45:35;10.63;;;4.53;;
39890;SDS011;25564;53.312;9.790;2023-11-21T01:48:07;10.70;;;4.93;;
39890;SDS011;25564;53.312;9.790;2023-11-21T01:50:38;13.70;;;5.57;;
39890;SDS011;25564;53.312;9.790;2023-11-21T01:53:11;14.60;;;5.63;;
39890;SDS011;25564;53.312;9.790;2023-11-21T01:55:44;11.63;;;4.97;;
39890;SDS011;25564;53.312;9.790;2023-11-21T01:58:16;14.20;;;5.37;;
39890;SDS011;25564;53.312;9.790;2023-11-21T02:00:48;14.17;;;5.17;;
39890;SDS011;25564;53.312;9.790;2023-11-21T02:03:22;16.60;;;5.60;;
39890;SDS011;25564;53.312;9.790;2023-11-21T02:05:53;14.27;;;5.70;;
39890;SDS011;25564;53.312;9.790;2023-11-21T02:08:25;8.60;;;4.63;;
39890;SDS011;25564;53.312;9.790;2023-11-21T02:10:58;10.70;;;4.13;;
39890;SDS011;25564;53.312;9.790;2023-11-21T02:13:29;14.67;;;6.07;;
39890;SDS011;25564;53.312;9.790;2023-11-21T02:16:01;13.57;;;5.77;;
39890;SDS011;25564;53.312;9.790;2023-11-21T02:18:32;13.07;;;6.10;;
39890;SDS011;25564;53.312;9.790;2023-11-21T02:21:04;16.70;;;6.37;;
39890;SDS011;25564;53.312;9.790;2023-11-21T02:23:36;16.20;;;6.73;;
39890;SDS011;25564;53.312;9.790;2023-11-21T02:26:07;17.10;;;8.00;;
39890;SDS011;25564;53.312;9.790;2023-11-21T02:28:40;12.90;;;6.73;;
39890;SDS011;25564;53.312;9.790;2023-11-21T02:31:13;14.77;;;8.07;;
39890;SDS011;25564;53.312;9.790;2023-11-21T02:33:45;16.47;;;7.17;;
39890;SDS011;25564;53.312;9.790;2023-11-21T02:36:16;16.47;;;7.37;;
39890;SDS011;25564;53.312;9.790;2023-11-21T02:38:47;16.47;;;6.90;;
39890;SDS011;25564;53.312;9.790;2023-11-21T02:41:19;16.37;;;7.47;;
39890;SDS011;25564;53.312;9.790;2023-11-21T02:43:51;13.63;;;5.93;;
39890;SDS011;25564;53.312;9.790;2023-11-21T02:46:22;16.53;;;7.63;;
39890;SDS011;25564;53.312;9.790;2023-11-21T02:48:54;15.20;;;6.27;;
39890;SDS011;25564;53.312;9.790;2023-11-21T02:51:25;14.10;;;6.50;;
39890;SDS011;25564;53.312;9.790;2023-11-21T02:53:57;18.53;;;7.10;;
39890;SDS011;25564;53.312;9.790;2023-11-21T02:56:30;12.77;;;6.63;;
39890;SDS011;25564;53.312;9.790;2023-11-21T02:59:02;20.47;;;8.93;;
39890;SDS011;25564;53.312;9.790;2023-11-21T03:01:33;14.20;;;7.53;;
39890;SDS011;25564;53.312;9.790;2023-11-21T03:04:05;16.53;;;7.10;;
39890;SDS011;25564;53.312;9.790;2023-11-21T03:06:36;14.73;;;6.93;;
39890;SDS011;25564;53.312;9.790;2023-11-21T03:09:07;13.37;;;6.07;;
39890;SDS011;25564;53.312;9.790;2023-11-21T03:11:39;9.50;;;5.40;;
39890;SDS011;25564;53.312;9.790;2023-11-21T03:14:10;10.07;;;5.20;;
39890;SDS011;25564;53.312;9.790;2023-11-21T03:16:41;10.90;;;5.37;;
39890;SDS011;25564;53.312;9.790;2023-11-21T03:19:13;12.23;;;5.80;;
39890;SDS011;25564;53.312;9.790;2023-11-21T03:21:46;13.23;;;5.40;;
39890;SDS011;25564;53.312;9.790;2023-11-21T03:24:18;11.30;;;5.10;;
39890;SDS011;25564;53.312;9.790;2023-11-21T03:26:50;9.43;;;4.67;;
39890;SDS011;25564;53.312;9.790;2023-11-21T03:29:22;10.40;;;5.00;;
39890;SDS011;25564;53.312;9.790;2023-11-21T03:31:53;8.83;;;4.63;;
39890;SDS011;25564;53.312;9.790;2023-11-21T03:34:26;8.27;;;4.63;;
39890;SDS011;25564;53.312;9.790;2023-11-21T03:36:58;9.80;;;4.90;;
39890;SDS011;25564;53.312;9.790;2023-11-21T03:39:29;11.40;;;4.73;;
39890;SDS011;25564;53.312;9.790;2023-11-21T03:42:01;9.10;;;4.50;;
39890;SDS011;25564;53.312;9.790;2023-11-21T03:44:32;8.67;;;4.40;;
39890;SDS011;25564;53.312;9.790;2023-11-21T03:47:04;13.00;;;5.83;;
39890;SDS011;25564;53.312;9.790;2023-11-21T03:49:36;10.70;;;4.73;;
39890;SDS011;25564;53.312;9.790;2023-11-21T03:52:08;9.50;;;4.73;;
39890;SDS011;25564;53.312;9.790;2023-11-21T03:54:40;10.50;;;4.83;;
39890;SDS011;25564;53.312;9.790;2023-11-21T03:57:11;9.10;;;5.10;;
39890;SDS011;25564;53.312;9.790;2023-11-21T03:59:43;8.90;;;5.23;;
39890;SDS011;25564;53.312;9.790;2023-11-21T04:02:15;9.80;;;4.70;;
39890;SDS011;25564;53.312;9.790;2023-11-21T04:04:46;7.43;;;4.43;;
39890;SDS011;25564;53.312;9.790;2023-11-21T04:07:18;9.13;;;4.67;;
39890;SDS011;25564;53.312;9.790;2023-11-21T04:09:49;10.80;;;4.53;;
39890;SDS011;25564;53.312;9.790;2023-11-21T04:12:22;10.80;;;6.00;;
39890;SDS011;25564;53.312;9.790;2023-11-21T04:14:53;12.57;;;5.30;;
39890;SDS011;25564;53.312;9.790;2023-11-21T04:17:26;8.93;;;4.80;;
39890;SDS011;25564;53.312;9.790;2023-11-21T04:19:57;8.67;;;4.63;;
39890;SDS011;25564;53.312;9.790;2023-11-21T04:22:29;11.07;;;4.87;;
39890;SDS011;25564;53.312;9.790;2023-11-21T04:25:00;8.23;;;4.13;;
39890;SDS011;25564;53.312;9.790;2023-11-21T04:27:32;9.77;;;5.17;;
39890;SDS011;25564;53.312;9.790;2023-11-21T04:30:04;10.47;;;5.60;;
39890;SDS011;25564;53.312;9.790;2023-11-21T04:32:36;9.57;;;5.30;;
39890;SDS011;25564;53.312;9.790;2023-11-21T04:35:08;9.77;;;4.63;;
39890;SDS011;25564;53.312;9.790;2023-11-21T04:37:40;8.97;;;4.63;;
39890;SDS011;25564;53.312;9.790;2023-11-21T04:40:11;9.03;;;4.73;;
39890;SDS011;25564;53.312;9.790;2023-11-21T04:42:43;9.83;;;4.93;;
39890;SDS011;25564;53.312;9.790;2023-11-21T04:45:14;11.30;;;5.30;;
39890;SDS011;25564;53.312;9.790;2023-11-21T04:47:47;11.47;;;5.50;;
39890;SDS011;25564;53.312;9.790;2023-11-21T04:50:18;10.07;;;4.63;;
39890;SDS011;25564;53.312;9.790;2023-11-21T04:52:50;10.13;;;5.70;;
39890;SDS011;25564;53.312;9.790;2023-11-21T04:55:21;14.27;;;5.43;;
39890;SDS011;25564;53.312;9.790;2023-11-21T04:57:53;13.33;;;5.63;;
39890;SDS011;25564;53.312;9.790;2023-11-21T05:00:25;9.90;;;5.30;;
39890;SDS011;25564;53.312;9.790;2023-11-21T05:02:56;11.80;;;5.10;;
39890;SDS011;25564;53.312;9.790;2023-11-21T05:05:27;10.33;;;5.23;;
39890;SDS011;25564;53.312;9.790;2023-11-21T05:08:00;10.17;;;5.23;;
39890;SDS011;25564;53.312;9.790;2023-11-21T05:10:33;12.17;;;5.73;;
39890;SDS011;25564;53.312;9.790;2023-11-21T05:13:05;10.10;;;5.33;;
39890;SDS011;25564;53.312;9.790;2023-11-21T05:18:12;11.60;;;5.33;;
39890;SDS011;25564;53.312;9.790;2023-11-21T05:20:45;13.03;;;5.90;;
39890;SDS011;25564;53.312;9.790;2023-11-21T05:23:16;9.80;;;5.23;;
39890;SDS011;25564;53.312;9.790;2023-11-21T05:25:48;11.07;;;5.10;;
39890;SDS011;25564;53.312;9.790;2023-11-21T05:28:19;9.93;;;5.50;;
39890;SDS011;25564;53.312;9.790;2023-11-21T05:30:50;9.80;;;5.73;;
39890;SDS011;25564;53.312;9.790;2023-11-21T05:33:37;12.80;;;5.30;;
39890;SDS011;25564;53.312;9.790;2023-11-21T05:36:09;14.40;;;6.07;;
39890;SDS011;25564;53.312;9.790;2023-11-21T05:38:41;11.30;;;5.70;;
39890;SDS011;25564;53.312;9.790;2023-11-21T05:41:12;12.47;;;6.13;;
39890;SDS011;25564;53.312;9.790;2023-11-21T05:43:44;13.30;;;5.57;;
39890;SDS011;25564;53.312;9.790;2023-11-21T05:46:16;14.57;;;5.50;;
39890;SDS011;25564;53.312;9.790;2023-11-21T05:48:47;9.30;;;5.23;;
39890;SDS011;25564;53.312;9.790;2023-11-21T05:51:19;11.77;;;5.30;;
39890;SDS011;25564;53.312;9.790;2023-11-21T05:53:51;14.87;;;5.30;;
39890;SDS011;25564;53.312;9.790;2023-11-21T05:56:22;11.03;;;5.50;;
39890;SDS011;25564;53.312;9.790;2023-11-21T05:58:53;12.70;;;5.83;;
39890;SDS011;25564;53.312;9.790;2023-11-21T06:01:25;10.93;;;5.97;;
39890;SDS011;25564;53.312;9.790;2023-11-21T06:03:59;10.70;;;5.27;;
39890;SDS011;25564;53.312;9.790;2023-11-21T06:06:30;9.10;;;5.37;;
39890;SDS011;25564;53.312;9.790;2023-11-21T06:09:02;12.70;;;5.83;;
39890;SDS011;25564;53.312;9.790;2023-11-21T06:11:34;11.67;;;5.77;;
39890;SDS011;25564;53.312;9.790;2023-11-21T06:14:06;10.80;;;5.13;;
39890;SDS011;25564;53.312;9.790;2023-11-21T06:16:39;12.00;;;5.77;;
39890;SDS011;25564;53.312;9.790;2023-11-21T06:19:12;16.63;;;5.30;;
39890;SDS011;25564;53.312;9.790;2023-11-21T06:21:46;11.93;;;6.53;;
39890;SDS011;25564;53.312;9.790;2023-11-21T06:24:18;14.87;;;6.23;;
39890;SDS011;25564;53.312;9.790;2023-11-21T06:26:51;10.50;;;5.63;;
39890;SDS011;25564;53.312;9.790;2023-11-21T06:29:24;13.17;;;5.90;;
39890;SDS011;25564;53.312;9.790;2023-11-21T06:31:55;12.13;;;6.07;;
39890;SDS011;25564;53.312;9.790;2023-11-21T06:34:27;9.60;;;5.10;;
39890;SDS011;25564;53.312;9.790;2023-11-21T06:36:59;12.83;;;7.37;;
39890;SDS011;25564;53.312;9.790;2023-11-21T06:39:30;13.57;;;6.40;;
39890;SDS011;25564;53.312;9.790;2023-11-21T06:42:01;11.50;;;5.97;;
39890;SDS011;25564;53.312;9.790;2023-11-21T06:44:33;10.23;;;5.53;;
39890;SDS011;25564;53.312;9.790;2023-11-21T06:47:04;12.37;;;6.30;;
39890;SDS011;25564;53.312;9.790;2023-11-21T06:49:36;11.97;;;5.23;;
39890;SDS011;25564;53.312;9.790;2023-11-21T06:52:09;11.33;;;5.80;;
39890;SDS011;25564;53.312;9.790;2023-11-21T06:54:41;15.53;;;6.83;;
39890;SDS011;25564;53.312;9.790;2023-11-21T06:57:12;13.60;;;5.93;;
39890;SDS011;25564;53.312;9.790;2023-11-21T06:59:44;15.70;;;6.60;;
39890;SDS011;25564;53.312;9.790;2023-11-21T07:02:16;12.53;;;6.60;;
39890;SDS011;25564;53.312;9.790;2023-11-21T07:04:49;15.10;;;6.90;;
39890;SDS011;25564;53.312;9.790;2023-11-21T07:07:21;8.63;;;5.47;;
39890;SDS011;25564;53.312;9.790;2023-11-21T07:09:52;10.20;;;5.20;;
39890;SDS011;25564;53.312;9.790;2023-11-21T07:12:24;12.30;;;5.90;;
39890;SDS011;25564;53.312;9.790;2023-11-21T07:14:57;9.93;;;5.17;;
39890;SDS011;25564;53.312;9.790;2023-11-21T07:17:29;10.00;;;5.73;;
39890;SDS011;25564;53.312;9.790;2023-11-21T07:20:00;15.80;;;6.17;;
39890;SDS011;25564;53.312;9.790;2023-11-21T07:22:32;11.57;;;5.93;;
39890;SDS011;25564;53.312;9.790;2023-11-21T07:25:04;12.53;;;6.00;;
39890;SDS011;25564;53.312;9.790;2023-11-21T07:27:36;17.70;;;6.77;;
39890;SDS011;25564;53.312;9.790;2023-11-21T07:30:08;12.40;;;6.60;;
39890;SDS011;25564;53.312;9.790;2023-11-21T07:32:41;10.60;;;5.80;;
39890;SDS011;25564;53.312;9.790;2023-11-21T07:35:13;10.93;;;5.93;;
39890;SDS011;25564;53.312;9.790;2023-11-21T07:37:44;11.10;;;6.13;;
39890;SDS011;25564;53.312;9.790;2023-11-21T07:40:16;12.77;;;6.33;;
39890;SDS011;25564;53.312;9.790;2023-11-21T07:42:48;8.73;;;5.33;;
39890;SDS011;25564;53.312;9.790;2023-11-21T07:45:20;12.97;;;6.80;;
39890;SDS011;25564;53.312;9.790;2023-11-21T07:47:53;11.97;;;6.10;;
39890;SDS011;25564;53.312;9.790;2023-11-21T07:50:25;12.73;;;5.93;;
39890;SDS011;25564;53.312;9.790;2023-11-21T07:52:58;10.17;;;5.83;;
39890;SDS011;25564;53.312;9.790;2023-11-21T07:55:29;8.47;;;5.20;;
39890;SDS011;25564;53.312;9.790;2023-11-21T07:58:03;11.40;;;5.73;;
39890;SDS011;25564;53.312;9.790;2023-11-21T08:00:35;9.73;;;5.80;;
39890;SDS011;25564;53.312;9.790;2023-11-21T08:03:06;13.53;;;6.60;;
39890;SDS011;25564;53.312;9.790;2023-11-21T08:05:38;11.60;;;5.93;;
39890;SDS011;25564;53.312;9.790;2023-11-21T08:08:09;10.07;;;5.90;;
39890;SDS011;25564;53.312;9.790;2023-11-21T08:10:40;10.00;;;5.83;;
39890;SDS011;25564;53.312;9.790;2023-11-21T08:13:13;11.43;;;6.30;;
39890;SDS011;25564;53.312;9.790;2023-11-21T08:15:47;12.27;;;6.80;;
39890;SDS011;25564;53.312;9.790;2023-11-21T08:18:18;11.90;;;5.93;;
39890;SDS011;25564;53.312;9.790;2023-11-21T08:20:50;10.40;;;5.33;;
39890;SDS011;25564;53.312;9.790;2023-11-21T08:23:22;14.27;;;6.50;;
39890;SDS011;25564;53.312;9.790;2023-11-21T08:25:56;11.37;;;6.00;;
39890;SDS011;25564;53.312;9.790;2023-11-21T08:28:28;10.10;;;5.47;;
39890;SDS011;25564;53.312;9.790;2023-11-21T08:31:00;11.00;;;5.93;;
39890;SDS011;25564;53.312;9.790;2023-11-21T08:33:32;9.93;;;5.60;;
39890;SDS011;25564;53.312;9.790;2023-11-21T08:36:06;11.03;;;5.87;;
39890;SDS011;25564;53.312;9.790;2023-11-21T08:38:39;11.82;;;7.25;;
39890;SDS011;25564;53.312;9.790;2023-11-21T08:41:12;13.83;;;6.53;;
39890;SDS011;25564;53.312;9.790;2023-11-21T08:43:45;10.53;;;5.93;;
39890;SDS011;25564;53.312;9.790;2023-11-21T08:46:19;10.80;;;5.93;;
39890;SDS011;25564;53.312;9.790;2023-11-21T08:48:52;10.63;;;5.90;;
39890;SDS011;25564;53.312;9.790;2023-11-21T08:51:23;14.57;;;6.77;;
39890;SDS011;25564;53.312;9.790;2023-11-21T08:53:56;9.53;;;5.73;;
39890;SDS011;25564;53.312;9.790;2023-11-21T08:56:30;11.63;;;5.43;;
39890;SDS011;25564;53.312;9.790;2023-11-21T08:59:02;10.80;;;5.60;;
39890;SDS011;25564;53.312;9.790;2023-11-21T09:01:33;11.37;;;6.57;;
39890;SDS011;25564;53.312;9.790;2023-11-21T09:04:05;11.97;;;6.00;;
39890;SDS011;25564;53.312;9.790;2023-11-21T09:06:37;12.67;;;5.57;;
39890;SDS011;25564;53.312;9.790;2023-11-21T09:09:08;9.43;;;5.27;;
39890;SDS011;25564;53.312;9.790;2023-11-21T09:11:41;15.70;;;5.73;;
39890;SDS011;25564;53.312;9.790;2023-11-21T09:14:12;12.63;;;6.50;;
39890;SDS011;25564;53.312;9.790;2023-11-21T09:16:46;10.63;;;5.33;;
39890;SDS011;25564;53.312;9.790;2023-11-21T09:19:18;11.17;;;5.17;;
39890;SDS011;25564;53.312;9.790;2023-11-21T09:21:49;10.30;;;5.67;;
39890;SDS011;25564;53.312;9.790;2023-11-21T09:24:21;9.17;;;5.23;;
39890;SDS011;25564;53.312;9.790;2023-11-21T09:26:53;12.80;;;5.70;;
39890;SDS011;25564;53.312;9.790;2023-11-21T09:29:24;9.60;;;5.73;;
39890;SDS011;25564;53.312;9.790;2023-11-21T09:31:56;13.60;;;5.33;;
39890;SDS011;25564;53.312;9.790;2023-11-21T09:34:30;11.80;;;6.03;;
39890;SDS011;25564;53.312;9.790;2023-11-21T09:37:03;10.33;;;5.50;;
39890;SDS011;25564;53.312;9.790;2023-11-21T09:39:36;12.73;;;6.00;;
39890;SDS011;25564;53.312;9.790;2023-11-21T09:42:11;9.93;;;5.60;;
39890;SDS011;25564;53.312;9.790;2023-11-21T09:47:41;8.83;;;5.33;;
39890;SDS011;25564;53.312;9.790;2023-11-21T09:50:14;9.87;;;5.03;;
39890;SDS011;25564;53.312;9.790;2023-11-21T09:52:52;9.83;;;5.33;;
39890;SDS011;25564;53.312;9.790;2023-11-21T09:55:27;9.53;;;4.67;;
39890;SDS011;25564;53.312;9.790;2023-11-21T09:58:03;7.55;;;4.60;;
39890;SDS011;25564;53.312;9.790;2023-11-21T10:00:43;8.77;;;4.80;;
39890;SDS011;25564;53.312;9.790;2023-11-21T10:05:48;10.30;;;4.03;;
39890;SDS011;25564;53.312;9.790;2023-11-21T10:08:22;9.40;;;4.40;;
39890;SDS011;25564;53.312;9.790;2023-11-21T10:10:55;11.70;;;4.83;;
39890;SDS011;25564;53.312;9.790;2023-11-21T10:13:27;6.87;;;3.93;;
39890;SDS011;25564;53.312;9.790;2023-11-21T10:16:02;6.90;;;3.90;;
39890;SDS011;25564;53.312;9.790;2023-11-21T10:18:36;6.37;;;3.53;;
39890;SDS011;25564;53.312;9.790;2023-11-21T10:21:10;8.60;;;3.93;;
39890;SDS011;25564;53.312;9.790;2023-11-21T10:23:42;5.07;;;2.60;;
39890;SDS011;25564;53.312;9.790;2023-11-21T10:26:14;5.67;;;3.03;;
39890;SDS011;25564;53.312;9.790;2023-11-21T10:29:01;5.95;;;2.90;;
39890;SDS011;25564;53.312;9.790;2023-11-21T10:31:37;8.10;;;3.40;;
39890;SDS011;25564;53.312;9.790;2023-11-21T10:34:15;5.83;;;2.93;;
39890;SDS011;25564;53.312;9.790;2023-11-21T10:36:47;5.70;;;3.10;;
39890;SDS011;25564;53.312;9.790;2023-11-21T10:39:20;5.53;;;3.40;;
39890;SDS011;25564;53.312;9.790;2023-11-21T10:41:51;6.33;;;3.50;;
39890;SDS011;25564;53.312;9.790;2023-11-21T10:44:23;11.87;;;3.57;;
39890;SDS011;25564;53.312;9.790;2023-11-21T10:46:55;4.40;;;2.60;;
39890;SDS011;25564;53.312;9.790;2023-11-21T10:49:28;5.97;;;3.10;;
39890;SDS011;25564;53.312;9.790;2023-11-21T10:51:59;5.03;;;3.07;;
39890;SDS011;25564;53.312;9.790;2023-11-21T10:54:31;4.93;;;2.97;;
39890;SDS011;25564;53.312;9.790;2023-11-21T10:57:02;5.27;;;3.03;;
39890;SDS011;25564;53.312;9.790;2023-11-21T10:59:35;7.77;;;2.87;;
39890;SDS011;25564;53.312;9.790;2023-11-21T11:02:13;4.27;;;2.50;;
39890;SDS011;25564;53.312;9.790;2023-11-21T11:04:54;7.10;;;2.72;;
39890;SDS011;25564;53.312;9.790;2023-11-21T11:07:28;5.07;;;2.93;;
39890;SDS011;25564;53.312;9.790;2023-11-21T11:10:01;7.23;;;3.07;;
39890;SDS011;25564;53.312;9.790;2023-11-21T11:12:35;6.83;;;3.30;;
39890;SDS011;25564;53.312;9.790;2023-11-21T11:15:07;6.50;;;3.20;;
39890;SDS011;25564;53.312;9.790;2023-11-21T11:17:40;5.37;;;2.90;;
39890;SDS011;25564;53.312;9.790;2023-11-21T11:20:14;7.60;;;3.67;;
39890;SDS011;25564;53.312;9.790;2023-11-21T11:22:50;4.97;;;3.03;;
39890;SDS011;25564;53.312;9.790;2023-11-21T11:28:32;5.77;;;3.27;;
39890;SDS011;25564;53.312;9.790;2023-11-21T11:31:14;5.07;;;2.80;;
39890;SDS011;25564;53.312;9.790;2023-11-21T11:34:24;6.13;;;2.50;;
39890;SDS011;25564;53.312;9.790;2023-11-21T11:37:02;6.37;;;2.87;;
39890;SDS011;25564;53.312;9.790;2023-11-21T11:42:12;4.63;;;2.73;;
39890;SDS011;25564;53.312;9.790;2023-11-21T11:44:47;6.33;;;3.23;;
39890;SDS011;25564;53.312;9.790;2023-11-21T11:47:29;7.90;;;2.43;;
39890;SDS011;25564;53.312;9.790;2023-11-21T11:50:09;4.63;;;2.87;;
39890;SDS011;25564;53.312;9.790;2023-11-21T11:52:53;3.63;;;2.37;;
39890;SDS011;25564;53.312;9.790;2023-11-21T11:55:26;5.00;;;2.90;;
39890;SDS011;25564;53.312;9.790;2023-11-21T11:58:04;5.43;;;2.30;;
39890;SDS011;25564;53.312;9.790;2023-11-21T12:00:37;4.77;;;2.90;;
39890;SDS011;25564;53.312;9.790;2023-11-21T12:03:10;5.30;;;2.33;;
39890;SDS011;25564;53.312;9.790;2023-11-21T12:05:43;6.30;;;2.77;;
39890;SDS011;25564;53.312;9.790;2023-11-21T12:08:17;4.17;;;2.13;;
39890;SDS011;25564;53.312;9.790;2023-11-21T12:10:49;4.00;;;2.33;;
39890;SDS011;25564;53.312;9.790;2023-11-21T12:13:21;4.57;;;2.33;;
39890;SDS011;25564;53.312;9.790;2023-11-21T12:15:54;4.23;;;2.47;;
39890;SDS011;25564;53.312;9.790;2023-11-21T12:18:26;3.57;;;2.47;;
39890;SDS011;25564;53.312;9.790;2023-11-21T12:20:58;5.13;;;2.60;;
39890;SDS011;25564;53.312;9.790;2023-11-21T12:23:29;5.20;;;2.27;;
39890;SDS011;25564;53.312;9.790;2023-11-21T12:26:13;4.53;;;2.20;;
39890;SDS011;25564;53.312;9.790;2023-11-21T12:28:51;4.17;;;2.67;;
39890;SDS011;25564;53.312;9.790;2023-11-21T12:31:26;6.50;;;2.83;;
39890;SDS011;25564;53.312;9.790;2023-11-21T12:34:00;3.53;;;2.23;;
39890;SDS011;25564;53.312;9.790;2023-11-21T12:36:32;6.70;;;2.30;;
39890;SDS011;25564;53.312;9.790;2023-11-21T12:39:05;5.83;;;2.30;;
39890;SDS011;25564;53.312;9.790;2023-11-21T12:41:37;3.93;;;2.50;;
39890;SDS011;25564;53.312;9.790;2023-11-21T12:44:12;4.90;;;2.77;;
39890;SDS011;25564;53.312;9.790;2023-11-21T12:46:44;7.43;;;2.55;;
39890;SDS011;25564;53.312;9.790;2023-11-21T12:49:16;5.73;;;2.30;;
39890;SDS011;25564;53.312;9.790;2023-11-21T12:51:49;4.60;;;1.97;;
39890;SDS011;25564;53.312;9.790;2023-11-21T12:54:21;5.87;;;2.77;;
39890;SDS011;25564;53.312;9.790;2023-11-21T12:56:53;3.60;;;2.37;;
39890;SDS011;25564;53.312;9.790;2023-11-21T12:59:25;4.40;;;2.70;;
39890;SDS011;25564;53.312;9.790;2023-11-21T13:01:57;7.33;;;2.73;;
39890;SDS011;25564;53.312;9.790;2023-11-21T13:04:31;4.83;;;2.43;;
39890;SDS011;25564;53.312;9.790;2023-11-21T13:07:05;3.43;;;2.10;;
39890;SDS011;25564;53.312;9.790;2023-11-21T13:09:45;6.90;;;2.77;;
39890;SDS011;25564;53.312;9.790;2023-11-21T13:12:17;3.70;;;1.87;;
39890;SDS011;25564;53.312;9.790;2023-11-21T13:14:50;5.03;;;2.40;;
39890;SDS011;25564;53.312;9.790;2023-11-21T13:17:21;4.17;;;2.27;;
39890;SDS011;25564;53.312;9.790;2023-11-21T13:19:55;3.77;;;2.20;;
39890;SDS011;25564;53.312;9.790;2023-11-21T13:22:28;2.57;;;1.77;;
39890;SDS011;25564;53.312;9.790;2023-11-21T13:25:00;4.27;;;1.80;;
39890;SDS011;25564;53.312;9.790;2023-11-21T13:27:33;5.90;;;1.90;;
39890;SDS011;25564;53.312;9.790;2023-11-21T13:30:08;3.03;;;2.10;;
39890;SDS011;25564;53.312;9.790;2023-11-21T13:32:45;4.57;;;2.00;;
39890;SDS011;25564;53.312;9.790;2023-11-21T13:35:17;3.67;;;1.90;;
39890;SDS011;25564;53.312;9.790;2023-11-21T13:37:52;6.97;;;2.07;;
39890;SDS011;25564;53.312;9.790;2023-11-21T13:40:26;4.43;;;2.07;;
39890;SDS011;25564;53.312;9.790;2023-11-21T13:42:58;3.83;;;2.10;;
39890;SDS011;25564;53.312;9.790;2023-11-21T13:45:30;3.63;;;2.00;;
39890;SDS011;25564;53.312;9.790;2023-11-21T13:48:02;3.97;;;1.90;;
39890;SDS011;25564;53.312;9.790;2023-11-21T13:50:33;4.57;;;2.33;;
39890;SDS011;25564;53.312;9.790;2023-11-21T13:53:05;3.90;;;1.73;;
39890;SDS011;25564;53.312;9.790;2023-11-21T13:55:50;4.43;;;1.67;;
39890;SDS011;25564;53.312;9.790;2023-11-21T13:58:25;4.53;;;1.92;;
39890;SDS011;25564;53.312;9.790;2023-11-21T14:01:16;4.20;;;2.10;;
39890;SDS011;25564;53.312;9.790;2023-11-21T14:04:08;4.03;;;2.17;;
39890;SDS011;25564;53.312;9.790;2023-11-21T14:06:50;4.90;;;2.27;;
39890;SDS011;25564;53.312;9.790;2023-11-21T14:09:24;2.80;;;2.00;;
39890;SDS011;25564;53.312;9.790;2023-11-21T14:11:56;7.87;;;2.37;;
39890;SDS011;25564;53.312;9.790;2023-11-21T14:14:29;4.47;;;2.00;;
39890;SDS011;25564;53.312;9.790;2023-11-21T14:17:00;4.03;;;2.00;;
39890;SDS011;25564;53.312;9.790;2023-11-21T14:19:35;5.07;;;2.17;;
39890;SDS011;25564;53.312;9.790;2023-11-21T14:22:11;3.97;;;1.98;;
39890;SDS011;25564;53.312;9.790;2023-11-21T14:24:43;4.20;;;2.40;;
39890;SDS011;25564;53.312;9.790;2023-11-21T14:27:17;5.83;;;2.93;;
39890;SDS011;25564;53.312;9.790;2023-11-21T14:29:49;3.57;;;2.10;;
39890;SDS011;25564;53.312;9.790;2023-11-21T14:32:20;5.60;;;2.43;;
39890;SDS011;25564;53.312;9.790;2023-11-21T14:34:52;3.87;;;2.43;;
39890;SDS011;25564;53.312;9.790;2023-11-21T14:37:24;4.73;;;2.60;;
39890;SDS011;25564;53.312;9.790;2023-11-21T14:39:56;4.73;;;2.43;;
39890;SDS011;25564;53.312;9.790;2023-11-21T14:42:28;4.27;;;2.70;;
39890;SDS011;25564;53.312;9.790;2023-11-21T14:45:00;4.97;;;2.03;;
39890;SDS011;25564;53.312;9.790;2023-11-21T14:47:36;7.22;;;2.28;;
39890;SDS011;25564;53.312;9.790;2023-11-21T14:50:09;3.67;;;2.07;;
39890;SDS011;25564;53.312;9.790;2023-11-21T14:52:59;4.07;;;2.20;;
39890;SDS011;25564;53.312;9.790;2023-11-21T14:55:34;5.20;;;2.57;;
39890;SDS011;25564;53.312;9.790;2023-11-21T14:58:21;5.73;;;2.40;;
39890;SDS011;25564;53.312;9.790;2023-11-21T15:00:58;5.93;;;2.70;;
39890;SDS011;25564;53.312;9.790;2023-11-21T15:03:31;5.10;;;2.83;;
39890;SDS011;25564;53.312;9.790;2023-11-21T15:06:03;5.53;;;2.53;;
39890;SDS011;25564;53.312;9.790;2023-11-21T15:08:57;4.77;;;2.33;;
39890;SDS011;25564;53.312;9.790;2023-11-21T15:11:38;4.40;;;2.70;;
39890;SDS011;25564;53.312;9.790;2023-11-21T15:14:10;5.87;;;2.40;;
39890;SDS011;25564;53.312;9.790;2023-11-21T15:16:44;5.13;;;2.77;;
39890;SDS011;25564;53.312;9.790;2023-11-21T15:19:21;4.23;;;2.30;;
39890;SDS011;25564;53.312;9.790;2023-11-21T15:21:57;4.15;;;2.22;;
39890;SDS011;25564;53.312;9.790;2023-11-21T15:24:29;5.93;;;2.40;;
39890;SDS011;25564;53.312;9.790;2023-11-21T15:27:00;5.43;;;2.50;;
39890;SDS011;25564;53.312;9.790;2023-11-21T15:29:34;3.07;;;1.93;;
39890;SDS011;25564;53.312;9.790;2023-11-21T15:32:06;4.57;;;2.70;;